Skip Navigation Links Skip Navigation Links

Current Weather

Grande Valley, Maricopa, Ariz.

For information only: do not use for flight planning or navigation.
Latest weather
Observation time Monday, October 18, 2021 12:55 PM MST
Local time Monday, October 18, 2021 1:22 PM MST
Flight conditions Visual Meteorological Conditions
Winds
Wind direction Southwest (220°)
Wind speed 18 mph
Wind gusting to 28 mph
Visibility 10 mi.
Sky condition
Ceiling unlimited
Sky clear
Temperature 82°F
Dewpoint 50°F
Altimeter 29.89 in.Hg
Derived measurements
Relative humidity 33%
Heat index 82°F
Density altitude 2997 ft.
Remarks
Fully automated report.
Automated weather observing station with precipitation discriminator.
METAR KA39 181955Z AUTO 22016G24KT 10SM CLR 28/10 A2989 RMK AO2

Settings

Location code

InnerDrive.Weather 4.0.6770.0 Release CLR 4.0.30319.42000
Copyright ©2018 Inner Drive Technology. All rights reserved. Portions Copyright ©1986-2018 David Braverman.

Find weather

Site navigation


Skip Navigation Links

Place info

Page info

PayPal - The safer, easier way to pay online!

Return home.

Copyright ©2021 Inner Drive Technology. Purveyors of fine, hand-crafted computer software. Page printed 2021-10-18T20:22:38 UTC.